sensor_id;sensor_type;location;lat;lon;timestamp;P1;durP1;ratioP1;P2;durP2;ratioP2
12474;SDS011;6302;42.624;23.334;2024-02-14T00:01:05;7.73;;;6.93;;
12474;SDS011;6302;42.624;23.334;2024-02-14T00:03:34;6.97;;;6.10;;
12474;SDS011;6302;42.624;23.334;2024-02-14T00:06:03;8.47;;;6.83;;
12474;SDS011;6302;42.624;23.334;2024-02-14T00:08:30;7.47;;;6.70;;
12474;SDS011;6302;42.624;23.334;2024-02-14T00:10:57;7.90;;;6.70;;
12474;SDS011;6302;42.624;23.334;2024-02-14T00:13:25;6.60;;;6.00;;
12474;SDS011;6302;42.624;23.334;2024-02-14T00:15:52;7.20;;;6.50;;
12474;SDS011;6302;42.624;23.334;2024-02-14T00:18:19;7.47;;;6.73;;
12474;SDS011;6302;42.624;23.334;2024-02-14T00:20:47;8.27;;;7.47;;
12474;SDS011;6302;42.624;23.334;2024-02-14T00:23:14;7.23;;;6.53;;
12474;SDS011;6302;42.624;23.334;2024-02-14T00:25:41;7.47;;;6.73;;
12474;SDS011;6302;42.624;23.334;2024-02-14T00:28:07;8.10;;;6.50;;
12474;SDS011;6302;42.624;23.334;2024-02-14T00:30:34;8.70;;;7.67;;
12474;SDS011;6302;42.624;23.334;2024-02-14T00:33:01;8.53;;;7.57;;
12474;SDS011;6302;42.624;23.334;2024-02-14T00:35:27;8.20;;;7.20;;
12474;SDS011;6302;42.624;23.334;2024-02-14T00:37:55;9.10;;;7.60;;
12474;SDS011;6302;42.624;23.334;2024-02-14T00:40:22;7.67;;;6.87;;
12474;SDS011;6302;42.624;23.334;2024-02-14T00:42:49;9.00;;;8.10;;
12474;SDS011;6302;42.624;23.334;2024-02-14T00:45:16;8.00;;;7.20;;
12474;SDS011;6302;42.624;23.334;2024-02-14T00:47:42;7.03;;;6.37;;
12474;SDS011;6302;42.624;23.334;2024-02-14T00:50:09;8.20;;;7.37;;
12474;SDS011;6302;42.624;23.334;2024-02-14T00:52:38;7.93;;;6.67;;
12474;SDS011;6302;42.624;23.334;2024-02-14T00:55:07;8.27;;;7.40;;
12474;SDS011;6302;42.624;23.334;2024-02-14T00:57:34;7.40;;;6.70;;
12474;SDS011;6302;42.624;23.334;2024-02-14T01:00:01;7.73;;;6.93;;
12474;SDS011;6302;42.624;23.334;2024-02-14T01:02:28;7.43;;;6.73;;
12474;SDS011;6302;42.624;23.334;2024-02-14T01:04:55;8.07;;;7.27;;
12474;SDS011;6302;42.624;23.334;2024-02-14T01:07:22;8.23;;;7.37;;
12474;SDS011;6302;42.624;23.334;2024-02-14T01:09:49;9.03;;;7.07;;
12474;SDS011;6302;42.624;23.334;2024-02-14T01:12:18;8.77;;;7.40;;
12474;SDS011;6302;42.624;23.334;2024-02-14T01:14:45;8.10;;;7.30;;
12474;SDS011;6302;42.624;23.334;2024-02-14T01:17:12;8.47;;;7.43;;
12474;SDS011;6302;42.624;23.334;2024-02-14T01:19:39;8.83;;;7.87;;
12474;SDS011;6302;42.624;23.334;2024-02-14T01:22:06;8.37;;;7.67;;
12474;SDS011;6302;42.624;23.334;2024-02-14T01:24:33;8.37;;;6.87;;
12474;SDS011;6302;42.624;23.334;2024-02-14T01:27:00;8.83;;;7.70;;
12474;SDS011;6302;42.624;23.334;2024-02-14T01:29:29;8.37;;;7.57;;
12474;SDS011;6302;42.624;23.334;2024-02-14T01:31:56;10.20;;;7.63;;
12474;SDS011;6302;42.624;23.334;2024-02-14T01:34:22;8.43;;;7.63;;
12474;SDS011;6302;42.624;23.334;2024-02-14T01:36:49;8.53;;;7.33;;
12474;SDS011;6302;42.624;23.334;2024-02-14T01:39:16;9.47;;;8.03;;
12474;SDS011;6302;42.624;23.334;2024-02-14T01:41:44;8.37;;;7.10;;
12474;SDS011;6302;42.624;23.334;2024-02-14T01:44:13;9.83;;;8.83;;
12474;SDS011;6302;42.624;23.334;2024-02-14T01:46:42;9.60;;;8.27;;
12474;SDS011;6302;42.624;23.334;2024-02-14T01:49:09;9.67;;;8.67;;
12474;SDS011;6302;42.624;23.334;2024-02-14T01:51:37;8.63;;;7.73;;
12474;SDS011;6302;42.624;23.334;2024-02-14T01:54:06;8.47;;;7.57;;
12474;SDS011;6302;42.624;23.334;2024-02-14T01:56:33;8.63;;;7.43;;
12474;SDS011;6302;42.624;23.334;2024-02-14T01:59:00;9.13;;;8.23;;
12474;SDS011;6302;42.624;23.334;2024-02-14T02:01:27;9.13;;;8.23;;
12474;SDS011;6302;42.624;23.334;2024-02-14T02:03:55;8.10;;;7.30;;
12474;SDS011;6302;42.624;23.334;2024-02-14T02:06:22;7.77;;;6.97;;
12474;SDS011;6302;42.624;23.334;2024-02-14T02:08:49;8.17;;;7.37;;
12474;SDS011;6302;42.624;23.334;2024-02-14T02:11:16;7.90;;;7.10;;
12474;SDS011;6302;42.624;23.334;2024-02-14T02:13:42;6.93;;;6.30;;
12474;SDS011;6302;42.624;23.334;2024-02-14T02:16:09;9.20;;;8.30;;
12474;SDS011;6302;42.624;23.334;2024-02-14T02:18:37;9.67;;;8.70;;
12474;SDS011;6302;42.624;23.334;2024-02-14T02:21:06;8.90;;;7.70;;
12474;SDS011;6302;42.624;23.334;2024-02-14T02:23:34;7.77;;;6.77;;
12474;SDS011;6302;42.624;23.334;2024-02-14T02:26:02;8.27;;;7.20;;
12474;SDS011;6302;42.624;23.334;2024-02-14T02:28:29;9.87;;;7.80;;
12474;SDS011;6302;42.624;23.334;2024-02-14T02:30:56;8.97;;;8.13;;
12474;SDS011;6302;42.624;23.334;2024-02-14T02:33:23;8.17;;;7.37;;
12474;SDS011;6302;42.624;23.334;2024-02-14T02:35:50;7.60;;;6.80;;
12474;SDS011;6302;42.624;23.334;2024-02-14T02:38:17;8.40;;;7.60;;
12474;SDS011;6302;42.624;23.334;2024-02-14T02:40:46;7.27;;;6.57;;
12474;SDS011;6302;42.624;23.334;2024-02-14T02:43:13;9.67;;;8.17;;
12474;SDS011;6302;42.624;23.334;2024-02-14T02:45:40;8.33;;;7.53;;
12474;SDS011;6302;42.624;23.334;2024-02-14T02:48:07;7.80;;;7.00;;
12474;SDS011;6302;42.624;23.334;2024-02-14T02:50:34;7.50;;;6.70;;
12474;SDS011;6302;42.624;23.334;2024-02-14T02:53:00;8.20;;;6.93;;
12474;SDS011;6302;42.624;23.334;2024-02-14T02:55:27;7.73;;;7.03;;
12474;SDS011;6302;42.624;23.334;2024-02-14T02:57:55;9.07;;;7.77;;
12474;SDS011;6302;42.624;23.334;2024-02-14T03:00:24;8.27;;;7.37;;
12474;SDS011;6302;42.624;23.334;2024-02-14T03:02:52;8.70;;;7.80;;
12474;SDS011;6302;42.624;23.334;2024-02-14T03:05:18;8.13;;;7.37;;
12474;SDS011;6302;42.624;23.334;2024-02-14T03:07:48;7.77;;;7.00;;
12474;SDS011;6302;42.624;23.334;2024-02-14T03:10:16;10.23;;;8.20;;
12474;SDS011;6302;42.624;23.334;2024-02-14T03:12:44;9.07;;;8.17;;
12474;SDS011;6302;42.624;23.334;2024-02-14T03:15:13;9.23;;;7.80;;
12474;SDS011;6302;42.624;23.334;2024-02-14T03:17:40;8.60;;;7.80;;
12474;SDS011;6302;42.624;23.334;2024-02-14T03:20:08;9.00;;;8.20;;
12474;SDS011;6302;42.624;23.334;2024-02-14T03:22:38;9.10;;;8.30;;
12474;SDS011;6302;42.624;23.334;2024-02-14T03:25:11;8.27;;;7.57;;
12474;SDS011;6302;42.624;23.334;2024-02-14T03:27:38;9.13;;;8.23;;
12474;SDS011;6302;42.624;23.334;2024-02-14T03:30:06;8.27;;;7.50;;
12474;SDS011;6302;42.624;23.334;2024-02-14T03:32:35;8.67;;;7.87;;
12474;SDS011;6302;42.624;23.334;2024-02-14T03:35:02;7.23;;;6.57;;
12474;SDS011;6302;42.624;23.334;2024-02-14T03:37:28;8.40;;;7.50;;
12474;SDS011;6302;42.624;23.334;2024-02-14T03:39:55;8.30;;;7.47;;
12474;SDS011;6302;42.624;23.334;2024-02-14T03:42:22;8.80;;;7.87;;
12474;SDS011;6302;42.624;23.334;2024-02-14T03:44:49;8.70;;;7.80;;
12474;SDS011;6302;42.624;23.334;2024-02-14T03:47:15;8.40;;;7.60;;
12474;SDS011;6302;42.624;23.334;2024-02-14T03:49:43;7.90;;;7.10;;
12474;SDS011;6302;42.624;23.334;2024-02-14T03:52:10;8.93;;;8.03;;
12474;SDS011;6302;42.624;23.334;2024-02-14T03:54:37;7.80;;;7.00;;
12474;SDS011;6302;42.624;23.334;2024-02-14T03:57:04;8.77;;;7.90;;
12474;SDS011;6302;42.624;23.334;2024-02-14T03:59:31;8.67;;;7.77;;
12474;SDS011;6302;42.624;23.334;2024-02-14T04:02:00;9.07;;;8.20;;
12474;SDS011;6302;42.624;23.334;2024-02-14T04:04:27;8.53;;;7.73;;
12474;SDS011;6302;42.624;23.334;2024-02-14T04:06:55;8.80;;;7.90;;
12474;SDS011;6302;42.624;23.334;2024-02-14T04:09:23;8.90;;;7.27;;
12474;SDS011;6302;42.624;23.334;2024-02-14T04:11:50;8.80;;;7.73;;
12474;SDS011;6302;42.624;23.334;2024-02-14T04:14:17;9.70;;;8.23;;
12474;SDS011;6302;42.624;23.334;2024-02-14T04:16:43;8.67;;;7.87;;
12474;SDS011;6302;42.624;23.334;2024-02-14T04:19:11;9.00;;;8.10;;
12474;SDS011;6302;42.624;23.334;2024-02-14T04:21:38;8.70;;;7.90;;
12474;SDS011;6302;42.624;23.334;2024-02-14T04:24:06;8.73;;;7.83;;
12474;SDS011;6302;42.624;23.334;2024-02-14T04:26:33;8.57;;;6.97;;
12474;SDS011;6302;42.624;23.334;2024-02-14T04:29:00;8.87;;;8.07;;
12474;SDS011;6302;42.624;23.334;2024-02-14T04:31:27;8.97;;;8.03;;
12474;SDS011;6302;42.624;23.334;2024-02-14T04:33:54;10.23;;;9.23;;
12474;SDS011;6302;42.624;23.334;2024-02-14T04:36:21;9.33;;;7.73;;
12474;SDS011;6302;42.624;23.334;2024-02-14T04:38:49;10.97;;;9.27;;
12474;SDS011;6302;42.624;23.334;2024-02-14T04:41:18;9.00;;;8.20;;
12474;SDS011;6302;42.624;23.334;2024-02-14T04:43:45;9.83;;;8.83;;
12474;SDS011;6302;42.624;23.334;2024-02-14T04:46:11;9.40;;;8.50;;
12474;SDS011;6302;42.624;23.334;2024-02-14T04:48:38;10.13;;;8.70;;
12474;SDS011;6302;42.624;23.334;2024-02-14T04:51:05;10.33;;;9.30;;
12474;SDS011;6302;42.624;23.334;2024-02-14T04:53:31;10.17;;;8.83;;
12474;SDS011;6302;42.624;23.334;2024-02-14T04:55:58;9.90;;;8.97;;
12474;SDS011;6302;42.624;23.334;2024-02-14T04:58:26;10.67;;;8.50;;
12474;SDS011;6302;42.624;23.334;2024-02-14T05:00:53;10.50;;;9.50;;
12474;SDS011;6302;42.624;23.334;2024-02-14T05:03:20;11.53;;;9.23;;
12474;SDS011;6302;42.624;23.334;2024-02-14T05:05:49;10.13;;;9.03;;
12474;SDS011;6302;42.624;23.334;2024-02-14T05:08:16;11.17;;;10.07;;
12474;SDS011;6302;42.624;23.334;2024-02-14T05:10:42;9.57;;;8.67;;
12474;SDS011;6302;42.624;23.334;2024-02-14T05:13:10;9.93;;;8.90;;
12474;SDS011;6302;42.624;23.334;2024-02-14T05:15:39;10.33;;;9.33;;
12474;SDS011;6302;42.624;23.334;2024-02-14T05:18:06;10.60;;;9.50;;
12474;SDS011;6302;42.624;23.334;2024-02-14T05:20:34;11.30;;;9.60;;
12474;SDS011;6302;42.624;23.334;2024-02-14T05:23:00;10.07;;;8.83;;
12474;SDS011;6302;42.624;23.334;2024-02-14T05:25:28;10.80;;;9.80;;
12474;SDS011;6302;42.624;23.334;2024-02-14T05:27:58;10.17;;;9.17;;
12474;SDS011;6302;42.624;23.334;2024-02-14T05:30:25;10.47;;;9.27;;
12474;SDS011;6302;42.624;23.334;2024-02-14T05:32:54;10.13;;;9.13;;
12474;SDS011;6302;42.624;23.334;2024-02-14T05:35:21;10.60;;;9.60;;
12474;SDS011;6302;42.624;23.334;2024-02-14T05:37:48;10.73;;;9.73;;
12474;SDS011;6302;42.624;23.334;2024-02-14T05:40:16;10.63;;;9.53;;
12474;SDS011;6302;42.624;23.334;2024-02-14T05:42:43;11.63;;;10.10;;
12474;SDS011;6302;42.624;23.334;2024-02-14T05:45:10;13.03;;;10.87;;
12474;SDS011;6302;42.624;23.334;2024-02-14T05:47:38;12.47;;;11.20;;
12474;SDS011;6302;42.624;23.334;2024-02-14T05:50:07;11.77;;;10.50;;
12474;SDS011;6302;42.624;23.334;2024-02-14T05:52:36;11.20;;;10.10;;
12474;SDS011;6302;42.624;23.334;2024-02-14T05:55:04;9.00;;;8.10;;
12474;SDS011;6302;42.624;23.334;2024-02-14T05:57:31;13.60;;;10.67;;
12474;SDS011;6302;42.624;23.334;2024-02-14T05:59:59;10.33;;;8.83;;
12474;SDS011;6302;42.624;23.334;2024-02-14T06:02:26;10.17;;;9.17;;
12474;SDS011;6302;42.624;23.334;2024-02-14T06:04:53;11.17;;;9.97;;
12474;SDS011;6302;42.624;23.334;2024-02-14T06:07:21;12.27;;;10.97;;
12474;SDS011;6302;42.624;23.334;2024-02-14T06:09:48;11.33;;;10.17;;
12474;SDS011;6302;42.624;23.334;2024-02-14T06:12:14;11.07;;;10.07;;
12474;SDS011;6302;42.624;23.334;2024-02-14T06:14:41;11.10;;;10.00;;
12474;SDS011;6302;42.624;23.334;2024-02-14T06:17:08;10.90;;;9.90;;
12474;SDS011;6302;42.624;23.334;2024-02-14T06:19:35;10.20;;;9.13;;
12474;SDS011;6302;42.624;23.334;2024-02-14T06:22:04;13.17;;;10.10;;
12474;SDS011;6302;42.624;23.334;2024-02-14T06:24:32;14.13;;;12.63;;
12474;SDS011;6302;42.624;23.334;2024-02-14T06:26:58;13.67;;;12.20;;
12474;SDS011;6302;42.624;23.334;2024-02-14T06:29:27;15.73;;;13.90;;
12474;SDS011;6302;42.624;23.334;2024-02-14T06:31:54;16.63;;;14.30;;
12474;SDS011;6302;42.624;23.334;2024-02-14T06:34:21;12.80;;;11.50;;
12474;SDS011;6302;42.624;23.334;2024-02-14T06:36:48;13.30;;;11.70;;
12474;SDS011;6302;42.624;23.334;2024-02-14T06:39:14;13.13;;;11.63;;
12474;SDS011;6302;42.624;23.334;2024-02-14T06:41:42;13.00;;;11.37;;
12474;SDS011;6302;42.624;23.334;2024-02-14T06:44:10;12.97;;;11.63;;
12474;SDS011;6302;42.624;23.334;2024-02-14T06:46:37;17.23;;;13.53;;
12474;SDS011;6302;42.624;23.334;2024-02-14T06:49:03;13.53;;;11.40;;
12474;SDS011;6302;42.624;23.334;2024-02-14T06:51:30;13.17;;;11.47;;
12474;SDS011;6302;42.624;23.334;2024-02-14T06:53:58;12.00;;;10.77;;
12474;SDS011;6302;42.624;23.334;2024-02-14T06:56:25;11.47;;;10.10;;
12474;SDS011;6302;42.624;23.334;2024-02-14T06:58:53;11.27;;;8.97;;
12474;SDS011;6302;42.624;23.334;2024-02-14T07:01:26;16.30;;;12.50;;
12474;SDS011;6302;42.624;23.334;2024-02-14T07:03:53;17.77;;;10.83;;
12474;SDS011;6302;42.624;23.334;2024-02-14T07:06:19;12.37;;;10.73;;
12474;SDS011;6302;42.624;23.334;2024-02-14T07:08:47;12.10;;;10.13;;
12474;SDS011;6302;42.624;23.334;2024-02-14T07:11:17;13.33;;;11.47;;
12474;SDS011;6302;42.624;23.334;2024-02-14T07:13:43;11.13;;;9.00;;
12474;SDS011;6302;42.624;23.334;2024-02-14T07:16:12;10.50;;;9.50;;
12474;SDS011;6302;42.624;23.334;2024-02-14T07:18:38;12.20;;;10.43;;
12474;SDS011;6302;42.624;23.334;2024-02-14T07:21:06;9.93;;;8.93;;
12474;SDS011;6302;42.624;23.334;2024-02-14T07:23:33;9.90;;;8.90;;
12474;SDS011;6302;42.624;23.334;2024-02-14T07:26:00;10.57;;;9.30;;
12474;SDS011;6302;42.624;23.334;2024-02-14T07:28:27;10.93;;;9.63;;
12474;SDS011;6302;42.624;23.334;2024-02-14T07:30:54;10.27;;;8.70;;
12474;SDS011;6302;42.624;23.334;2024-02-14T07:33:21;9.43;;;8.03;;
12474;SDS011;6302;42.624;23.334;2024-02-14T07:35:49;13.73;;;10.87;;
12474;SDS011;6302;42.624;23.334;2024-02-14T07:38:15;8.43;;;7.63;;
12474;SDS011;6302;42.624;23.334;2024-02-14T07:40:43;10.77;;;9.47;;
12474;SDS011;6302;42.624;23.334;2024-02-14T07:43:09;9.73;;;8.83;;
12474;SDS011;6302;42.624;23.334;2024-02-14T07:45:36;10.33;;;9.00;;
12474;SDS011;6302;42.624;23.334;2024-02-14T07:48:03;10.63;;;9.50;;
12474;SDS011;6302;42.624;23.334;2024-02-14T07:50:32;8.17;;;7.37;;
12474;SDS011;6302;42.624;23.334;2024-02-14T07:52:59;9.00;;;8.10;;
12474;SDS011;6302;42.624;23.334;2024-02-14T07:55:26;9.37;;;8.43;;
12474;SDS011;6302;42.624;23.334;2024-02-14T07:57:52;9.57;;;8.30;;
12474;SDS011;6302;42.624;23.334;2024-02-14T08:00:19;13.80;;;10.57;;
12474;SDS011;6302;42.624;23.334;2024-02-14T08:02:48;18.33;;;15.60;;
12474;SDS011;6302;42.624;23.334;2024-02-14T08:05:15;13.60;;;10.80;;
12474;SDS011;6302;42.624;23.334;2024-02-14T08:07:45;14.37;;;12.90;;
12474;SDS011;6302;42.624;23.334;2024-02-14T08:10:12;13.67;;;12.17;;
12474;SDS011;6302;42.624;23.334;2024-02-14T08:12:39;12.13;;;10.93;;
12474;SDS011;6302;42.624;23.334;2024-02-14T08:15:05;11.73;;;10.63;;
12474;SDS011;6302;42.624;23.334;2024-02-14T08:17:33;11.23;;;10.10;;
12474;SDS011;6302;42.624;23.334;2024-02-14T08:20:00;14.13;;;12.63;;
12474;SDS011;6302;42.624;23.334;2024-02-14T08:22:29;9.73;;;8.73;;
12474;SDS011;6302;42.624;23.334;2024-02-14T08:24:57;12.13;;;10.80;;
12474;SDS011;6302;42.624;23.334;2024-02-14T08:27:24;9.37;;;8.17;;
12474;SDS011;6302;42.624;23.334;2024-02-14T08:29:52;12.77;;;10.07;;
12474;SDS011;6302;42.624;23.334;2024-02-14T08:32:20;11.20;;;9.63;;
12474;SDS011;6302;42.624;23.334;2024-02-14T08:34:47;12.13;;;9.73;;
12474;SDS011;6302;42.624;23.334;2024-02-14T08:37:15;10.60;;;9.50;;
12474;SDS011;6302;42.624;23.334;2024-02-14T08:39:42;21.60;;;14.17;;
12474;SDS011;6302;42.624;23.334;2024-02-14T08:42:10;12.97;;;11.17;;
12474;SDS011;6302;42.624;23.334;2024-02-14T08:44:36;11.97;;;10.67;;
12474;SDS011;6302;42.624;23.334;2024-02-14T08:47:03;10.63;;;9.57;;
12474;SDS011;6302;42.624;23.334;2024-02-14T08:49:30;11.00;;;9.30;;
12474;SDS011;6302;42.624;23.334;2024-02-14T08:51:57;13.90;;;11.70;;
12474;SDS011;6302;42.624;23.334;2024-02-14T08:54:26;11.97;;;10.00;;
12474;SDS011;6302;42.624;23.334;2024-02-14T08:56:53;13.00;;;11.00;;
12474;SDS011;6302;42.624;23.334;2024-02-14T08:59:25;10.53;;;8.53;;
12474;SDS011;6302;42.624;23.334;2024-02-14T09:01:51;10.90;;;9.53;;
12474;SDS011;6302;42.624;23.334;2024-02-14T09:04:18;10.50;;;9.40;;
12474;SDS011;6302;42.624;23.334;2024-02-14T09:06:45;8.90;;;8.00;;
12474;SDS011;6302;42.624;23.334;2024-02-14T09:09:11;10.60;;;9.10;;
12474;SDS011;6302;42.624;23.334;2024-02-14T09:11:40;8.97;;;7.77;;
12474;SDS011;6302;42.624;23.334;2024-02-14T09:14:07;10.30;;;8.87;;
12474;SDS011;6302;42.624;23.334;2024-02-14T09:16:37;11.57;;;8.97;;
12474;SDS011;6302;42.624;23.334;2024-02-14T09:19:04;9.60;;;8.07;;
12474;SDS011;6302;42.624;23.334;2024-02-14T09:21:32;8.93;;;8.00;;
12474;SDS011;6302;42.624;23.334;2024-02-14T09:24:00;9.50;;;8.60;;
12474;SDS011;6302;42.624;23.334;2024-02-14T09:26:28;10.90;;;9.50;;
12474;SDS011;6302;42.624;23.334;2024-02-14T09:28:54;11.10;;;9.17;;
12474;SDS011;6302;42.624;23.334;2024-02-14T09:31:21;11.47;;;8.60;;
12474;SDS011;6302;42.624;23.334;2024-02-14T09:33:49;9.63;;;8.63;;
12474;SDS011;6302;42.624;23.334;2024-02-14T09:36:18;11.27;;;9.33;;
12474;SDS011;6302;42.624;23.334;2024-02-14T09:38:46;9.27;;;8.20;;
12474;SDS011;6302;42.624;23.334;2024-02-14T09:41:14;9.40;;;8.50;;
12474;SDS011;6302;42.624;23.334;2024-02-14T09:43:47;9.73;;;8.80;;
12474;SDS011;6302;42.624;23.334;2024-02-14T09:46:14;8.47;;;7.20;;
12474;SDS011;6302;42.624;23.334;2024-02-14T09:48:42;11.20;;;9.10;;
12474;SDS011;6302;42.624;23.334;2024-02-14T09:51:11;9.43;;;8.47;;
12474;SDS011;6302;42.624;23.334;2024-02-14T09:53:39;8.50;;;7.60;;
12474;SDS011;6302;42.624;23.334;2024-02-14T09:56:06;8.80;;;7.90;;
12474;SDS011;6302;42.624;23.334;2024-02-14T09:58:36;9.67;;;8.67;;
12474;SDS011;6302;42.624;23.334;2024-02-14T10:01:03;9.27;;;8.43;;
12474;SDS011;6302;42.624;23.334;2024-02-14T10:03:31;10.43;;;7.80;;
12474;SDS011;6302;42.624;23.334;2024-02-14T10:05:58;9.00;;;8.10;;
12474;SDS011;6302;42.624;23.334;2024-02-14T10:08:27;10.87;;;8.67;;
12474;SDS011;6302;42.624;23.334;2024-02-14T10:10:56;9.80;;;8.00;;
12474;SDS011;6302;42.624;23.334;2024-02-14T10:13:25;9.73;;;8.73;;
12474;SDS011;6302;42.624;23.334;2024-02-14T10:15:53;10.43;;;8.23;;
12474;SDS011;6302;42.624;23.334;2024-02-14T10:18:20;9.37;;;8.37;;
12474;SDS011;6302;42.624;23.334;2024-02-14T10:20:56;8.80;;;7.90;;
12474;SDS011;6302;42.624;23.334;2024-02-14T10:23:23;12.27;;;9.00;;
12474;SDS011;6302;42.624;23.334;2024-02-14T10:25:52;9.07;;;7.93;;
12474;SDS011;6302;42.624;23.334;2024-02-14T10:28:21;8.57;;;7.60;;
12474;SDS011;6302;42.624;23.334;2024-02-14T10:30:48;9.77;;;7.57;;
12474;SDS011;6302;42.624;23.334;2024-02-14T10:33:15;8.93;;;8.03;;
12474;SDS011;6302;42.624;23.334;2024-02-14T10:35:42;9.33;;;8.37;;
12474;SDS011;6302;42.624;23.334;2024-02-14T10:38:10;8.57;;;7.43;;
12474;SDS011;6302;42.624;23.334;2024-02-14T10:40:38;7.53;;;6.77;;
12474;SDS011;6302;42.624;23.334;2024-02-14T10:43:06;8.53;;;7.73;;
12474;SDS011;6302;42.624;23.334;2024-02-14T10:45:34;8.60;;;7.83;;
12474;SDS011;6302;42.624;23.334;2024-02-14T10:48:01;8.53;;;7.60;;
12474;SDS011;6302;42.624;23.334;2024-02-14T10:50:31;8.40;;;7.60;;
12474;SDS011;6302;42.624;23.334;2024-02-14T10:53:00;8.13;;;7.40;;
12474;SDS011;6302;42.624;23.334;2024-02-14T10:55:31;8.20;;;7.40;;
12474;SDS011;6302;42.624;23.334;2024-02-14T10:57:59;8.27;;;7.07;;
12474;SDS011;6302;42.624;23.334;2024-02-14T11:00:28;8.87;;;8.07;;
12474;SDS011;6302;42.624;23.334;2024-02-14T11:02:57;8.63;;;7.83;;
12474;SDS011;6302;42.624;23.334;2024-02-14T11:05:25;8.40;;;7.47;;
12474;SDS011;6302;42.624;23.334;2024-02-14T11:07:52;7.10;;;6.50;;
12474;SDS011;6302;42.624;23.334;2024-02-14T11:10:20;8.10;;;7.30;;
12474;SDS011;6302;42.624;23.334;2024-02-14T11:12:48;8.80;;;7.90;;
12474;SDS011;6302;42.624;23.334;2024-02-14T11:15:16;7.70;;;6.90;;
12474;SDS011;6302;42.624;23.334;2024-02-14T11:17:45;7.77;;;6.97;;
12474;SDS011;6302;42.624;23.334;2024-02-14T11:22:49;9.00;;;7.60;;
12474;SDS011;6302;42.624;23.334;2024-02-14T11:25:20;8.40;;;7.50;;
12474;SDS011;6302;42.624;23.334;2024-02-14T11:27:49;8.30;;;7.50;;
12474;SDS011;6302;42.624;23.334;2024-02-14T11:30:26;7.67;;;6.87;;
12474;SDS011;6302;42.624;23.334;2024-02-14T11:32:55;8.70;;;7.90;;
12474;SDS011;6302;42.624;23.334;2024-02-14T11:35:38;8.03;;;7.30;;
12474;SDS011;6302;42.624;23.334;2024-02-14T11:38:05;10.53;;;8.00;;
12474;SDS011;6302;42.624;23.334;2024-02-14T11:40:32;7.43;;;6.77;;
12474;SDS011;6302;42.624;23.334;2024-02-14T11:42:59;7.10;;;6.40;;
12474;SDS011;6302;42.624;23.334;2024-02-14T11:45:26;9.07;;;7.90;;
12474;SDS011;6302;42.624;23.334;2024-02-14T11:47:53;8.10;;;7.30;;
12474;SDS011;6302;42.624;23.334;2024-02-14T11:50:22;8.37;;;7.57;;
12474;SDS011;6302;42.624;23.334;2024-02-14T11:52:49;8.33;;;6.90;;
12474;SDS011;6302;42.624;23.334;2024-02-14T11:55:17;7.27;;;6.57;;
12474;SDS011;6302;42.624;23.334;2024-02-14T11:57:44;8.23;;;7.43;;
12474;SDS011;6302;42.624;23.334;2024-02-14T12:00:13;8.07;;;7.13;;
12474;SDS011;6302;42.624;23.334;2024-02-14T12:02:40;7.70;;;7.00;;
12474;SDS011;6302;42.624;23.334;2024-02-14T12:05:09;8.23;;;7.33;;
12474;SDS011;6302;42.624;23.334;2024-02-14T12:07:36;8.60;;;7.40;;
12474;SDS011;6302;42.624;23.334;2024-02-14T12:10:03;8.03;;;7.23;;
12474;SDS011;6302;42.624;23.334;2024-02-14T12:12:31;8.13;;;7.03;;
12474;SDS011;6302;42.624;23.334;2024-02-14T12:15:01;8.13;;;7.33;;
12474;SDS011;6302;42.624;23.334;2024-02-14T12:17:29;7.60;;;6.80;;
12474;SDS011;6302;42.624;23.334;2024-02-14T12:20:04;8.10;;;7.37;;
12474;SDS011;6302;42.624;23.334;2024-02-14T12:22:37;6.70;;;6.10;;
12474;SDS011;6302;42.624;23.334;2024-02-14T12:25:05;7.70;;;7.00;;
12474;SDS011;6302;42.624;23.334;2024-02-14T12:27:33;8.47;;;7.00;;
12474;SDS011;6302;42.624;23.334;2024-02-14T12:30:02;7.57;;;6.87;;
12474;SDS011;6302;42.624;23.334;2024-02-14T12:32:30;8.57;;;6.67;;
12474;SDS011;6302;42.624;23.334;2024-02-14T12:34:56;9.23;;;6.80;;
12474;SDS011;6302;42.624;23.334;2024-02-14T12:37:24;8.07;;;6.97;;
12474;SDS011;6302;42.624;23.334;2024-02-14T12:39:52;6.63;;;5.93;;
12474;SDS011;6302;42.624;23.334;2024-02-14T12:42:20;8.57;;;6.10;;
12474;SDS011;6302;42.624;23.334;2024-02-14T12:44:50;7.90;;;6.20;;
12474;SDS011;6302;42.624;23.334;2024-02-14T12:47:18;6.37;;;5.77;;
12474;SDS011;6302;42.624;23.334;2024-02-14T12:49:46;6.60;;;6.00;;
12474;SDS011;6302;42.624;23.334;2024-02-14T12:52:14;7.30;;;6.60;;
12474;SDS011;6302;42.624;23.334;2024-02-14T12:54:41;6.93;;;6.30;;
12474;SDS011;6302;42.624;23.334;2024-02-14T12:57:09;8.47;;;6.83;;
12474;SDS011;6302;42.624;23.334;2024-02-14T12:59:36;7.90;;;7.10;;
12474;SDS011;6302;42.624;23.334;2024-02-14T13:02:03;7.70;;;6.87;;
12474;SDS011;6302;42.624;23.334;2024-02-14T13:04:31;7.70;;;7.00;;
12474;SDS011;6302;42.624;23.334;2024-02-14T13:06:58;8.60;;;7.33;;
12474;SDS011;6302;42.624;23.334;2024-02-14T13:09:25;14.13;;;10.00;;
12474;SDS011;6302;42.624;23.334;2024-02-14T13:11:52;8.90;;;7.37;;
12474;SDS011;6302;42.624;23.334;2024-02-14T13:14:21;7.07;;;6.47;;
12474;SDS011;6302;42.624;23.334;2024-02-14T13:16:47;7.50;;;6.80;;
12474;SDS011;6302;42.624;23.334;2024-02-14T13:19:14;9.10;;;7.40;;
12474;SDS011;6302;42.624;23.334;2024-02-14T13:21:41;10.30;;;7.63;;
12474;SDS011;6302;42.624;23.334;2024-02-14T13:24:10;12.13;;;9.80;;
12474;SDS011;6302;42.624;23.334;2024-02-14T13:26:38;9.77;;;7.50;;
12474;SDS011;6302;42.624;23.334;2024-02-14T13:29:05;8.33;;;6.63;;
12474;SDS011;6302;42.624;23.334;2024-02-14T13:31:33;6.97;;;6.27;;
12474;SDS011;6302;42.624;23.334;2024-02-14T13:34:00;6.87;;;6.17;;
12474;SDS011;6302;42.624;23.334;2024-02-14T13:36:28;7.50;;;6.70;;
12474;SDS011;6302;42.624;23.334;2024-02-14T13:38:56;7.33;;;6.63;;
12474;SDS011;6302;42.624;23.334;2024-02-14T13:41:23;6.97;;;6.30;;
12474;SDS011;6302;42.624;23.334;2024-02-14T13:43:50;8.20;;;6.47;;
12474;SDS011;6302;42.624;23.334;2024-02-14T13:46:17;7.93;;;7.13;;
12474;SDS011;6302;42.624;23.334;2024-02-14T13:48:45;7.93;;;6.93;;
12474;SDS011;6302;42.624;23.334;2024-02-14T13:51:12;7.97;;;6.80;;
12474;SDS011;6302;42.624;23.334;2024-02-14T13:53:39;9.17;;;7.20;;
12474;SDS011;6302;42.624;23.334;2024-02-14T13:56:06;8.23;;;7.33;;
12474;SDS011;6302;42.624;23.334;2024-02-14T13:58:32;6.80;;;6.20;;
12474;SDS011;6302;42.624;23.334;2024-02-14T14:00:59;7.53;;;6.50;;
12474;SDS011;6302;42.624;23.334;2024-02-14T14:03:26;6.70;;;6.10;;
12474;SDS011;6302;42.624;23.334;2024-02-14T14:05:56;6.80;;;6.07;;
12474;SDS011;6302;42.624;23.334;2024-02-14T14:08:23;7.33;;;6.30;;
12474;SDS011;6302;42.624;23.334;2024-02-14T14:10:49;7.97;;;7.17;;
12474;SDS011;6302;42.624;23.334;2024-02-14T14:13:16;7.40;;;6.70;;
12474;SDS011;6302;42.624;23.334;2024-02-14T14:15:43;7.17;;;6.40;;
12474;SDS011;6302;42.624;23.334;2024-02-14T14:18:09;7.00;;;6.30;;
12474;SDS011;6302;42.624;23.334;2024-02-14T14:20:36;7.70;;;6.17;;
12474;SDS011;6302;42.624;23.334;2024-02-14T14:23:05;7.73;;;7.03;;
12474;SDS011;6302;42.624;23.334;2024-02-14T14:25:32;7.23;;;6.53;;
12474;SDS011;6302;42.624;23.334;2024-02-14T14:28:00;8.23;;;6.63;;
12474;SDS011;6302;42.624;23.334;2024-02-14T14:30:27;7.47;;;6.67;;
12474;SDS011;6302;42.624;23.334;2024-02-14T14:32:54;7.10;;;6.40;;
12474;SDS011;6302;42.624;23.334;2024-02-14T14:35:21;9.40;;;7.80;;
12474;SDS011;6302;42.624;23.334;2024-02-14T14:37:47;8.53;;;6.87;;
12474;SDS011;6302;42.624;23.334;2024-02-14T14:40:16;10.70;;;6.40;;
12474;SDS011;6302;42.624;23.334;2024-02-14T14:42:42;6.73;;;6.03;;
12474;SDS011;6302;42.624;23.334;2024-02-14T14:45:09;6.97;;;6.27;;